createdAt,value
2018-08-18T03:14:30.640Z,87.12
2018-08-18T03:15:30.619Z,88.32
2018-08-18T03:16:30.566Z,88.04
2018-08-18T03:17:30.713Z,89.29
2018-08-18T03:18:30.573Z,89.34
2018-08-18T03:19:30.566Z,89.63
2018-08-18T03:20:30.561Z,89.43
2018-08-18T03:21:30.606Z,89.05
2018-08-18T03:22:30.576Z,89.43
2018-08-18T03:23:30.561Z,88.13
2018-08-18T03:24:30.530Z,86.63
2018-08-18T03:25:30.559Z,84.36
2018-08-18T03:26:30.531Z,84.36
2018-08-18T03:27:30.589Z,83.59
2018-08-18T03:28:30.607Z,85.28
2018-08-18T03:29:30.556Z,85.03
2018-08-18T03:30:30.552Z,83.20
2018-08-18T03:31:30.585Z,83.59
2018-08-18T03:32:30.568Z,84.32
2018-08-18T03:33:30.571Z,83.78
2018-08-18T03:34:30.549Z,83.30
2018-08-18T03:35:30.606Z,83.40
2018-08-18T03:36:30.554Z,84.90
2018-08-18T03:37:30.568Z,85.77
2018-08-18T03:38:30.604Z,86.44
2018-08-18T03:39:30.589Z,86.40
2018-08-18T03:40:30.599Z,87.99
2018-08-18T03:41:30.588Z,88.28
2018-08-18T03:42:30.599Z,88.67
2018-08-18T03:43:30.612Z,88.85
2018-08-18T03:44:30.637Z,89.05
2018-08-18T03:45:30.600Z,89.05
2018-08-18T03:46:30.574Z,88.95
2018-08-18T03:47:30.585Z,89.53
2018-08-18T03:48:30.582Z,89.15
2018-08-18T03:49:30.635Z,89.63
2018-08-18T03:50:30.585Z,87.32
2018-08-18T03:51:30.597Z,87.51
2018-08-18T03:52:30.715Z,86.55
2018-08-18T03:53:30.656Z,87.60
2018-08-18T03:54:30.653Z,88.47
2018-08-18T03:55:30.607Z,88.38
2018-08-18T03:56:30.617Z,88.18
2018-08-18T03:57:30.640Z,88.57
2018-08-18T03:58:30.662Z,86.11
2018-08-18T03:59:30.646Z,86.40
2018-08-18T04:00:30.627Z,86.88
2018-08-18T04:01:30.666Z,86.40
2018-08-18T04:02:30.672Z,86.40
2018-08-18T04:03:30.655Z,86.40
2018-08-18T04:04:30.675Z,84.61
2018-08-18T04:05:30.674Z,84.52
2018-08-18T04:06:30.656Z,85.53
2018-08-18T04:07:30.645Z,86.55
2018-08-18T04:08:30.645Z,87.41
2018-08-18T04:09:30.652Z,87.51
2018-08-18T04:10:30.686Z,86.35
2018-08-18T04:11:30.666Z,88.18
2018-08-18T04:12:30.658Z,88.81
2018-08-18T04:13:30.738Z,88.38
2018-08-18T04:14:30.667Z,89.10
2018-08-18T04:15:30.681Z,89.29
2018-08-18T04:16:30.671Z,88.85
2018-08-18T04:17:30.672Z,88.18
2018-08-18T04:18:30.724Z,88.47
2018-08-18T04:19:30.688Z,88.38
2018-08-18T04:20:30.677Z,86.45
2018-08-18T04:21:30.679Z,86.93
2018-08-18T04:22:30.712Z,88.09
2018-08-18T04:23:30.741Z,88.28
2018-08-18T04:24:30.695Z,86.98
2018-08-18T04:25:30.742Z,85.09
2018-08-18T04:26:30.977Z,86.49
2018-08-18T04:27:30.715Z,86.59
2018-08-18T04:28:30.748Z,85.14
2018-08-18T04:29:30.708Z,85.43
2018-08-18T04:30:30.749Z,86.74
2018-08-18T04:31:30.743Z,86.55
2018-08-18T04:32:30.742Z,87.41
2018-08-18T04:33:30.744Z,87.51
2018-08-18T04:34:30.734Z,87.41
2018-08-18T04:35:30.749Z,87.90
2018-08-18T04:36:30.759Z,86.49
2018-08-18T04:37:30.737Z,84.56
2018-08-18T04:38:30.733Z,85.14
2018-08-18T04:39:30.754Z,86.78
2018-08-18T04:40:30.749Z,86.59
2018-08-18T04:41:30.749Z,85.38
2018-08-18T04:42:30.763Z,85.91
2018-08-18T04:43:30.746Z,86.49
2018-08-18T04:44:30.750Z,85.05
2018-08-18T04:45:31.027Z,85.43
2018-08-18T04:46:30.762Z,85.72
2018-08-18T04:47:30.771Z,85.97
2018-08-18T04:48:30.779Z,86.74
2018-08-18T04:49:30.764Z,87.12
2018-08-18T04:50:30.802Z,88.38
2018-08-18T04:51:30.786Z,88.57
2018-08-18T04:52:30.776Z,89.05
2018-08-18T04:53:30.784Z,87.51
2018-08-18T04:54:30.782Z,88.09
2018-08-18T04:55:30.794Z,88.67
2018-08-18T04:56:30.788Z,88.76
2018-08-18T04:57:30.808Z,89.20
2018-08-18T04:58:30.802Z,89.24
2018-08-18T04:59:30.879Z,89.05
2018-08-18T05:00:30.841Z,88.85
2018-08-18T05:01:30.804Z,88.95
2018-08-18T05:02:30.816Z,88.76
2018-08-18T05:03:30.898Z,88.28
2018-08-18T05:04:30.864Z,88.28
2018-08-18T05:05:30.828Z,88.76
2018-08-18T05:06:30.843Z,88.18
2018-08-18T05:07:30.851Z,88.18
2018-08-18T05:08:30.839Z,88.67
2018-08-18T05:09:30.838Z,88.67
2018-08-18T05:10:30.840Z,88.38
2018-08-18T05:11:30.909Z,88.18
2018-08-18T05:12:30.895Z,88.09
2018-08-18T05:13:30.863Z,88.09
2018-08-18T05:14:30.850Z,87.80
2018-08-18T05:15:30.856Z,86.40
2018-08-18T05:16:30.925Z,87.36
2018-08-18T05:17:30.929Z,87.46
2018-08-18T05:18:31.040Z,86.88
2018-08-18T05:19:30.907Z,86.49
2018-08-18T05:20:30.878Z,85.28
2018-08-18T05:21:31.017Z,85.19
2018-08-18T05:22:30.889Z,86.01
2018-08-18T05:23:30.901Z,84.90
2018-08-18T05:24:30.899Z,85.57
2018-08-18T05:25:30.955Z,85.77
2018-08-18T05:26:30.952Z,85.67
2018-08-18T05:27:30.953Z,86.63
2018-08-18T05:28:30.931Z,86.49
2018-08-18T05:29:30.950Z,86.73
2018-08-18T05:30:30.962Z,84.99
2018-08-18T05:31:30.994Z,86.15
2018-08-18T05:32:30.939Z,84.99
2018-08-18T05:33:30.998Z,84.55
2018-08-18T05:34:30.953Z,83.40
2018-08-18T05:35:30.994Z,82.62
2018-08-18T05:36:31.013Z,81.99
2018-08-18T05:37:30.993Z,82.92
2018-08-18T05:38:30.984Z,82.82
2018-08-18T05:39:31.339Z,83.98
2018-08-18T05:40:31.031Z,83.11
2018-08-18T05:41:31.060Z,83.50
2018-08-18T05:42:31.016Z,83.30
2018-08-18T05:43:31.036Z,82.72
2018-08-18T05:44:31.025Z,83.01
2018-08-18T05:45:31.029Z,83.11
2018-08-18T05:46:31.069Z,82.28
2018-08-18T05:47:31.049Z,82.38
2018-08-18T05:48:31.064Z,82.48
2018-08-18T05:49:31.047Z,81.99
2018-08-18T05:50:31.050Z,82.28
2018-08-18T05:51:31.105Z,82.18
2018-08-18T05:52:31.195Z,82.48
2018-08-18T05:53:31.097Z,82.57
2018-08-18T05:54:31.113Z,81.80
2018-08-18T05:55:31.101Z,80.10
2018-08-18T05:56:31.109Z,78.89
2018-08-18T05:57:31.110Z,77.92
2018-08-18T05:58:31.128Z,78.11
2018-08-18T05:59:31.126Z,77.19
2018-08-18T06:00:31.147Z,76.61
2018-08-18T06:01:31.151Z,76.12
2018-08-18T06:02:31.164Z,75.64
2018-08-18T06:03:31.202Z,75.29
2018-08-18T06:04:31.167Z,75.10
2018-08-18T06:05:31.234Z,74.71
2018-08-18T06:06:31.216Z,74.81
2018-08-18T06:07:31.197Z,74.42
2018-08-18T06:08:31.214Z,74.13
2018-08-18T06:09:31.249Z,73.97
2018-08-18T06:10:31.227Z,73.55
2018-08-18T06:11:31.261Z,73.49
2018-08-18T06:12:31.255Z,73.10
2018-08-18T06:13:31.310Z,72.52
2018-08-18T06:14:31.288Z,73.10
2018-08-18T06:15:31.295Z,73.10
2018-08-18T06:16:31.314Z,72.72
2018-08-18T06:17:31.305Z,72.81
2018-08-18T06:18:31.368Z,72.81
2018-08-18T06:19:31.332Z,72.14
2018-08-18T06:20:31.346Z,72.81
2018-08-18T06:21:31.387Z,73.36
2018-08-18T06:22:31.336Z,72.42
2018-08-18T06:23:31.349Z,72.42
2018-08-18T06:24:31.409Z,71.40
2018-08-18T06:25:31.402Z,72.14
2018-08-18T06:26:31.392Z,73.65
2018-08-18T06:27:31.414Z,74.68
2018-08-18T06:28:31.404Z,74.68
2018-08-18T06:29:31.433Z,74.68
2018-08-18T06:30:31.419Z,75.74
2018-08-18T06:31:31.440Z,76.51
2018-08-18T06:32:31.428Z,76.37
2018-08-18T06:33:31.445Z,76.76
2018-08-18T06:34:31.518Z,77.15
2018-08-18T06:35:31.488Z,77.44
2018-08-18T06:36:31.456Z,77.15
2018-08-18T06:37:31.464Z,76.95
2018-08-18T06:38:31.469Z,77.05
2018-08-18T06:39:31.509Z,76.95
2018-08-18T06:40:31.496Z,77.00
2018-08-18T06:41:31.603Z,76.42
2018-08-18T06:42:31.541Z,76.42
2018-08-18T06:43:31.510Z,77.44
2018-08-18T06:44:31.594Z,78.02
2018-08-18T06:45:31.525Z,78.17
2018-08-18T06:46:33.175Z,77.88
2018-08-18T06:47:31.551Z,78.56
2018-08-18T06:48:31.546Z,78.66
2018-08-18T06:49:31.542Z,77.25
2018-08-18T06:50:31.604Z,78.21
2018-08-18T06:51:31.572Z,77.44
2018-08-18T06:52:31.565Z,77.83
2018-08-18T06:53:31.588Z,77.25
2018-08-18T06:54:31.687Z,78.11
2018-08-18T06:55:31.590Z,78.50
2018-08-18T06:56:31.600Z,77.83
2018-08-18T06:57:31.602Z,77.25
2018-08-18T06:58:31.608Z,76.09
2018-08-18T06:59:31.637Z,77.30
2018-08-18T07:00:31.620Z,77.98
2018-08-18T07:01:31.640Z,77.83
2018-08-18T07:02:31.653Z,77.73
2018-08-18T07:03:31.739Z,76.61
2018-08-18T07:04:33.161Z,76.18
2018-08-18T07:05:31.666Z,76.09
2018-08-18T07:06:31.665Z,76.37
2018-08-18T07:07:31.712Z,77.25
2018-08-18T07:08:31.686Z,77.15
2018-08-18T07:09:31.687Z,76.37
2018-08-18T07:10:31.685Z,76.37
2018-08-18T07:11:31.695Z,76.28
2018-08-18T07:12:31.691Z,76.09
2018-08-18T07:13:31.808Z,75.51
2018-08-18T07:14:31.705Z,74.64
2018-08-18T07:15:31.775Z,74.58
2018-08-18T07:16:31.719Z,74.10
2018-08-18T07:17:31.753Z,74.06
2018-08-18T07:18:31.734Z,74.73
2018-08-18T07:19:31.866Z,74.16
2018-08-18T07:20:33.706Z,74.54
2018-08-18T07:21:31.761Z,73.48
2018-08-18T07:22:31.767Z,71.64
2018-08-18T07:23:31.831Z,72.52
2018-08-18T07:24:31.770Z,72.77
2018-08-18T07:25:31.794Z,73.54
2018-08-18T07:26:31.816Z,73.15
2018-08-18T07:27:31.792Z,73.28
2018-08-18T07:28:31.888Z,72.22
2018-08-18T07:29:31.832Z,72.42
2018-08-18T07:30:31.801Z,72.52
2018-08-18T07:31:31.823Z,72.42
2018-08-18T07:32:31.833Z,72.32
2018-08-18T07:33:31.865Z,72.09
2018-08-18T07:34:31.833Z,72.03
2018-08-18T07:35:31.842Z,72.19
2018-08-18T07:36:31.837Z,72.03
2018-08-18T07:37:32.023Z,72.22
2018-08-18T07:38:31.853Z,72.13
2018-08-18T07:39:31.859Z,71.94
2018-08-18T07:40:31.873Z,72.52
2018-08-18T07:41:31.877Z,71.30
2018-08-18T07:42:31.901Z,71.55
2018-08-18T07:43:31.885Z,71.20
2018-08-18T07:44:31.934Z,71.16
2018-08-18T07:45:31.893Z,71.16
2018-08-18T07:46:31.925Z,71.74
2018-08-18T07:47:31.925Z,71.16
2018-08-18T07:48:31.908Z,70.72
2018-08-18T07:49:31.915Z,70.48
2018-08-18T07:50:31.933Z,70.78
2018-08-18T07:51:31.931Z,71.26
2018-08-18T07:52:31.950Z,71.16
2018-08-18T07:53:31.964Z,71.36
2018-08-18T07:54:31.940Z,71.94
2018-08-18T07:55:31.968Z,71.64
2018-08-18T07:56:31.961Z,71.64
2018-08-18T07:57:31.962Z,72.22
2018-08-18T07:58:31.979Z,71.26
2018-08-18T07:59:31.986Z,71.64
2018-08-18T08:00:31.983Z,71.26
2018-08-18T08:01:31.985Z,71.26
2018-08-18T08:02:32.004Z,71.16
2018-08-18T08:03:32.058Z,71.94
2018-08-18T08:04:32.021Z,71.84
2018-08-18T08:05:32.091Z,71.84
2018-08-18T08:06:32.045Z,71.84
2018-08-18T08:07:32.029Z,71.06
2018-08-18T08:08:32.039Z,72.03
2018-08-18T08:09:32.053Z,71.64
2018-08-18T08:10:32.067Z,71.36
2018-08-18T08:11:32.042Z,71.90
2018-08-18T08:12:32.155Z,72.38
2018-08-18T08:13:32.049Z,72.22
2018-08-18T08:14:32.073Z,72.22
2018-08-18T08:15:32.090Z,71.94
2018-08-18T08:16:32.079Z,72.03
2018-08-18T08:17:32.072Z,72.03
2018-08-18T08:18:32.079Z,72.52
2018-08-18T08:19:32.085Z,72.64
2018-08-18T08:20:32.102Z,72.13
2018-08-18T08:21:32.097Z,72.03
2018-08-18T08:22:32.107Z,72.32
2018-08-18T08:23:32.144Z,72.32
2018-08-18T08:24:32.136Z,72.80
2018-08-18T08:25:32.132Z,72.80
2018-08-18T08:26:32.131Z,73.00
2018-08-18T08:27:32.143Z,72.06
2018-08-18T08:28:32.135Z,72.52
2018-08-18T08:29:32.204Z,72.13
2018-08-18T08:30:32.154Z,73.00
2018-08-18T08:31:32.170Z,73.19
2018-08-18T08:32:32.164Z,72.13
2018-08-18T08:33:32.168Z,72.71
2018-08-18T08:34:32.168Z,72.71
